sensor_id;sensor_type;location;lat;lon;timestamp;P1;durP1;ratioP1;P2;durP2;ratioP2
10166;SDS011;5125;53.130;8.244;2022-07-10T00:01:09;3.70;;;1.40;;
10166;SDS011;5125;53.130;8.244;2022-07-10T00:03:38;2.90;;;1.30;;
10166;SDS011;5125;53.130;8.244;2022-07-10T00:06:10;3.40;;;1.30;;
10166;SDS011;5125;53.130;8.244;2022-07-10T00:08:38;2.43;;;1.40;;
10166;SDS011;5125;53.130;8.244;2022-07-10T00:11:07;2.13;;;1.30;;
10166;SDS011;5125;53.130;8.244;2022-07-10T00:13:37;4.30;;;1.37;;
10166;SDS011;5125;53.130;8.244;2022-07-10T00:16:05;2.20;;;1.00;;
10166;SDS011;5125;53.130;8.244;2022-07-10T00:18:40;3.43;;;1.30;;
10166;SDS011;5125;53.130;8.244;2022-07-10T00:21:08;3.53;;;1.17;;
10166;SDS011;5125;53.130;8.244;2022-07-10T00:23:37;3.17;;;1.23;;
10166;SDS011;5125;53.130;8.244;2022-07-10T00:26:06;3.07;;;1.27;;
10166;SDS011;5125;53.130;8.244;2022-07-10T00:28:38;2.73;;;1.10;;
10166;SDS011;5125;53.130;8.244;2022-07-10T00:31:10;5.17;;;1.70;;
10166;SDS011;5125;53.130;8.244;2022-07-10T00:33:42;3.03;;;1.10;;
10166;SDS011;5125;53.130;8.244;2022-07-10T00:36:13;3.07;;;1.03;;
10166;SDS011;5125;53.130;8.244;2022-07-10T00:38:48;2.73;;;1.27;;
10166;SDS011;5125;53.130;8.244;2022-07-10T00:41:20;3.30;;;1.10;;
10166;SDS011;5125;53.130;8.244;2022-07-10T00:43:51;2.83;;;0.90;;
10166;SDS011;5125;53.130;8.244;2022-07-10T00:46:25;3.83;;;1.03;;
10166;SDS011;5125;53.130;8.244;2022-07-10T00:48:54;2.23;;;1.00;;
10166;SDS011;5125;53.130;8.244;2022-07-10T00:51:27;3.10;;;1.33;;
10166;SDS011;5125;53.130;8.244;2022-07-10T00:54:00;4.30;;;1.30;;
10166;SDS011;5125;53.130;8.244;2022-07-10T00:56:32;5.37;;;1.50;;
10166;SDS011;5125;53.130;8.244;2022-07-10T00:59:01;3.97;;;1.47;;
10166;SDS011;5125;53.130;8.244;2022-07-10T01:01:32;2.87;;;1.17;;
10166;SDS011;5125;53.130;8.244;2022-07-10T01:04:10;3.03;;;1.07;;
10166;SDS011;5125;53.130;8.244;2022-07-10T01:06:40;2.07;;;1.07;;
10166;SDS011;5125;53.130;8.244;2022-07-10T01:09:12;2.50;;;1.23;;
10166;SDS011;5125;53.130;8.244;2022-07-10T01:11:43;1.93;;;1.10;;
10166;SDS011;5125;53.130;8.244;2022-07-10T01:14:16;3.73;;;1.37;;
10166;SDS011;5125;53.130;8.244;2022-07-10T01:16:49;2.47;;;1.20;;
10166;SDS011;5125;53.130;8.244;2022-07-10T01:19:19;4.33;;;1.40;;
10166;SDS011;5125;53.130;8.244;2022-07-10T01:21:52;2.17;;;1.00;;
10166;SDS011;5125;53.130;8.244;2022-07-10T01:24:21;5.10;;;2.57;;
10166;SDS011;5125;53.130;8.244;2022-07-10T01:26:50;4.13;;;1.17;;
10166;SDS011;5125;53.130;8.244;2022-07-10T01:29:25;3.90;;;1.20;;
10166;SDS011;5125;53.130;8.244;2022-07-10T01:31:55;2.70;;;1.17;;
10166;SDS011;5125;53.130;8.244;2022-07-10T01:34:26;2.47;;;1.07;;
10166;SDS011;5125;53.130;8.244;2022-07-10T01:36:57;4.03;;;1.40;;
10166;SDS011;5125;53.130;8.244;2022-07-10T01:39:27;2.50;;;1.10;;
10166;SDS011;5125;53.130;8.244;2022-07-10T01:41:57;3.20;;;1.30;;
10166;SDS011;5125;53.130;8.244;2022-07-10T01:44:32;4.23;;;1.30;;
10166;SDS011;5125;53.130;8.244;2022-07-10T01:47:04;1.33;;;0.90;;
10166;SDS011;5125;53.130;8.244;2022-07-10T01:49:34;2.27;;;1.20;;
10166;SDS011;5125;53.130;8.244;2022-07-10T01:52:06;1.03;;;0.73;;
10166;SDS011;5125;53.130;8.244;2022-07-10T01:54:35;1.97;;;0.90;;
10166;SDS011;5125;53.130;8.244;2022-07-10T01:57:04;0.90;;;0.80;;
10166;SDS011;5125;53.130;8.244;2022-07-10T01:59:34;1.83;;;1.00;;
10166;SDS011;5125;53.130;8.244;2022-07-10T02:02:02;3.30;;;1.27;;
10166;SDS011;5125;53.130;8.244;2022-07-10T02:04:34;4.27;;;1.20;;
10166;SDS011;5125;53.130;8.244;2022-07-10T02:07:09;1.57;;;1.10;;
10166;SDS011;5125;53.130;8.244;2022-07-10T02:09:38;2.13;;;1.00;;
10166;SDS011;5125;53.130;8.244;2022-07-10T02:12:11;3.23;;;1.23;;
10166;SDS011;5125;53.130;8.244;2022-07-10T02:14:42;2.90;;;1.10;;
10166;SDS011;5125;53.130;8.244;2022-07-10T02:17:12;3.43;;;1.17;;
10166;SDS011;5125;53.130;8.244;2022-07-10T02:19:41;1.37;;;0.70;;
10166;SDS011;5125;53.130;8.244;2022-07-10T02:22:18;3.07;;;1.13;;
10166;SDS011;5125;53.130;8.244;2022-07-10T02:24:48;3.07;;;1.17;;
10166;SDS011;5125;53.130;8.244;2022-07-10T02:27:18;3.07;;;0.83;;
10166;SDS011;5125;53.130;8.244;2022-07-10T02:29:48;2.10;;;1.00;;
10166;SDS011;5125;53.130;8.244;2022-07-10T02:32:18;2.70;;;1.00;;
10166;SDS011;5125;53.130;8.244;2022-07-10T02:34:47;3.03;;;1.10;;
10166;SDS011;5125;53.130;8.244;2022-07-10T02:37:18;2.63;;;1.20;;
10166;SDS011;5125;53.130;8.244;2022-07-10T02:39:47;1.93;;;1.00;;
10166;SDS011;5125;53.130;8.244;2022-07-10T02:42:17;2.07;;;0.90;;
10166;SDS011;5125;53.130;8.244;2022-07-10T02:44:46;3.93;;;1.50;;
10166;SDS011;5125;53.130;8.244;2022-07-10T02:47:16;3.53;;;1.50;;
10166;SDS011;5125;53.130;8.244;2022-07-10T02:49:46;3.37;;;1.20;;
10166;SDS011;5125;53.130;8.244;2022-07-10T02:52:15;2.80;;;1.00;;
10166;SDS011;5125;53.130;8.244;2022-07-10T02:54:47;3.70;;;1.20;;
10166;SDS011;5125;53.130;8.244;2022-07-10T02:57:16;4.03;;;1.27;;
10166;SDS011;5125;53.130;8.244;2022-07-10T02:59:46;2.43;;;0.93;;
10166;SDS011;5125;53.130;8.244;2022-07-10T03:02:19;3.17;;;0.90;;
10166;SDS011;5125;53.130;8.244;2022-07-10T03:04:49;2.97;;;1.20;;
10166;SDS011;5125;53.130;8.244;2022-07-10T03:07:19;5.97;;;1.30;;
10166;SDS011;5125;53.130;8.244;2022-07-10T03:09:52;3.77;;;1.20;;
10166;SDS011;5125;53.130;8.244;2022-07-10T03:12:24;1.90;;;1.13;;
10166;SDS011;5125;53.130;8.244;2022-07-10T03:14:53;3.00;;;1.33;;
10166;SDS011;5125;53.130;8.244;2022-07-10T03:17:21;5.97;;;1.47;;
10166;SDS011;5125;53.130;8.244;2022-07-10T03:19:51;3.40;;;1.10;;
10166;SDS011;5125;53.130;8.244;2022-07-10T03:22:20;2.73;;;1.53;;
10166;SDS011;5125;53.130;8.244;2022-07-10T03:24:52;3.00;;;1.10;;
10166;SDS011;5125;53.130;8.244;2022-07-10T03:27:20;3.83;;;1.20;;
10166;SDS011;5125;53.130;8.244;2022-07-10T03:29:49;2.83;;;1.10;;
10166;SDS011;5125;53.130;8.244;2022-07-10T03:32:18;3.80;;;1.23;;
10166;SDS011;5125;53.130;8.244;2022-07-10T03:34:46;2.70;;;1.30;;
10166;SDS011;5125;53.130;8.244;2022-07-10T03:37:20;4.60;;;1.27;;
10166;SDS011;5125;53.130;8.244;2022-07-10T03:39:48;4.70;;;1.30;;
10166;SDS011;5125;53.130;8.244;2022-07-10T03:42:19;1.90;;;1.10;;
10166;SDS011;5125;53.130;8.244;2022-07-10T03:44:49;1.37;;;1.00;;
10166;SDS011;5125;53.130;8.244;2022-07-10T03:47:17;1.40;;;1.03;;
10166;SDS011;5125;53.130;8.244;2022-07-10T03:49:46;2.77;;;1.13;;
10166;SDS011;5125;53.130;8.244;2022-07-10T03:52:15;2.17;;;1.13;;
10166;SDS011;5125;53.130;8.244;2022-07-10T03:54:43;2.97;;;1.30;;
10166;SDS011;5125;53.130;8.244;2022-07-10T03:57:12;2.93;;;1.23;;
10166;SDS011;5125;53.130;8.244;2022-07-10T03:59:56;3.93;;;1.20;;
10166;SDS011;5125;53.130;8.244;2022-07-10T04:02:25;4.13;;;1.20;;
10166;SDS011;5125;53.130;8.244;2022-07-10T04:04:53;2.83;;;1.20;;
10166;SDS011;5125;53.130;8.244;2022-07-10T04:07:22;2.40;;;1.00;;
10166;SDS011;5125;53.130;8.244;2022-07-10T04:09:52;3.00;;;1.27;;
10166;SDS011;5125;53.130;8.244;2022-07-10T04:12:21;3.40;;;1.30;;
10166;SDS011;5125;53.130;8.244;2022-07-10T04:14:49;3.03;;;1.10;;
10166;SDS011;5125;53.130;8.244;2022-07-10T04:17:21;3.63;;;1.20;;
10166;SDS011;5125;53.130;8.244;2022-07-10T04:19:49;3.20;;;1.20;;
10166;SDS011;5125;53.130;8.244;2022-07-10T04:22:18;3.70;;;1.40;;
10166;SDS011;5125;53.130;8.244;2022-07-10T04:24:46;3.77;;;1.20;;
10166;SDS011;5125;53.130;8.244;2022-07-10T04:27:15;2.57;;;1.40;;
10166;SDS011;5125;53.130;8.244;2022-07-10T04:29:44;2.50;;;1.30;;
10166;SDS011;5125;53.130;8.244;2022-07-10T04:32:12;4.00;;;1.43;;
10166;SDS011;5125;53.130;8.244;2022-07-10T04:34:43;3.03;;;1.33;;
10166;SDS011;5125;53.130;8.244;2022-07-10T04:37:12;3.50;;;1.20;;
10166;SDS011;5125;53.130;8.244;2022-07-10T04:39:41;2.90;;;1.30;;
10166;SDS011;5125;53.130;8.244;2022-07-10T04:42:10;2.87;;;1.13;;
10166;SDS011;5125;53.130;8.244;2022-07-10T04:44:38;1.73;;;0.90;;
10166;SDS011;5125;53.130;8.244;2022-07-10T04:47:07;2.13;;;1.07;;
10166;SDS011;5125;53.130;8.244;2022-07-10T04:49:36;1.53;;;1.00;;
10166;SDS011;5125;53.130;8.244;2022-07-10T04:52:08;3.20;;;1.10;;
10166;SDS011;5125;53.130;8.244;2022-07-10T04:54:36;2.30;;;0.80;;
10166;SDS011;5125;53.130;8.244;2022-07-10T04:57:06;3.53;;;1.10;;
10166;SDS011;5125;53.130;8.244;2022-07-10T04:59:35;4.33;;;0.90;;
10166;SDS011;5125;53.130;8.244;2022-07-10T05:02:05;3.80;;;1.10;;
10166;SDS011;5125;53.130;8.244;2022-07-10T05:04:35;3.33;;;1.10;;
10166;SDS011;5125;53.130;8.244;2022-07-10T05:07:04;3.73;;;1.27;;
10166;SDS011;5125;53.130;8.244;2022-07-10T05:09:35;2.67;;;1.07;;
10166;SDS011;5125;53.130;8.244;2022-07-10T05:12:04;2.93;;;0.90;;
10166;SDS011;5125;53.130;8.244;2022-07-10T05:14:34;3.13;;;1.20;;
10166;SDS011;5125;53.130;8.244;2022-07-10T05:17:03;2.93;;;0.90;;
10166;SDS011;5125;53.130;8.244;2022-07-10T05:19:32;1.40;;;0.80;;
10166;SDS011;5125;53.130;8.244;2022-07-10T05:22:01;3.37;;;1.10;;
10166;SDS011;5125;53.130;8.244;2022-07-10T05:24:30;2.63;;;1.00;;
10166;SDS011;5125;53.130;8.244;2022-07-10T05:27:02;1.63;;;0.87;;
10166;SDS011;5125;53.130;8.244;2022-07-10T05:29:31;2.80;;;1.17;;
10166;SDS011;5125;53.130;8.244;2022-07-10T05:31:59;3.60;;;1.30;;
10166;SDS011;5125;53.130;8.244;2022-07-10T05:34:28;3.97;;;1.30;;
10166;SDS011;5125;53.130;8.244;2022-07-10T05:36:56;2.37;;;1.10;;
10166;SDS011;5125;53.130;8.244;2022-07-10T05:39:25;5.17;;;1.40;;
10166;SDS011;5125;53.130;8.244;2022-07-10T05:41:54;4.43;;;1.10;;
10166;SDS011;5125;53.130;8.244;2022-07-10T05:44:25;6.57;;;1.43;;
10166;SDS011;5125;53.130;8.244;2022-07-10T05:46:54;5.17;;;1.27;;
10166;SDS011;5125;53.130;8.244;2022-07-10T05:49:23;4.53;;;1.27;;
10166;SDS011;5125;53.130;8.244;2022-07-10T05:51:51;2.63;;;1.13;;
10166;SDS011;5125;53.130;8.244;2022-07-10T05:54:20;3.73;;;1.40;;
10166;SDS011;5125;53.130;8.244;2022-07-10T05:56:49;4.43;;;1.37;;
10166;SDS011;5125;53.130;8.244;2022-07-10T05:59:17;3.43;;;1.30;;
10166;SDS011;5125;53.130;8.244;2022-07-10T06:01:49;3.70;;;1.30;;
10166;SDS011;5125;53.130;8.244;2022-07-10T06:04:17;6.90;;;1.50;;
10166;SDS011;5125;53.130;8.244;2022-07-10T06:06:45;5.67;;;1.40;;
10166;SDS011;5125;53.130;8.244;2022-07-10T06:09:14;4.77;;;1.37;;
10166;SDS011;5125;53.130;8.244;2022-07-10T06:11:43;4.43;;;1.27;;
10166;SDS011;5125;53.130;8.244;2022-07-10T06:14:13;3.90;;;1.50;;
10166;SDS011;5125;53.130;8.244;2022-07-10T06:16:42;3.70;;;1.30;;
10166;SDS011;5125;53.130;8.244;2022-07-10T06:19:13;2.23;;;1.00;;
10166;SDS011;5125;53.130;8.244;2022-07-10T06:21:44;2.37;;;0.80;;
10166;SDS011;5125;53.130;8.244;2022-07-10T06:24:34;2.67;;;1.30;;
10166;SDS011;5125;53.130;8.244;2022-07-10T06:27:03;3.03;;;1.20;;
10166;SDS011;5125;53.130;8.244;2022-07-10T06:29:33;2.70;;;1.20;;
10166;SDS011;5125;53.130;8.244;2022-07-10T06:32:01;5.17;;;1.47;;
10166;SDS011;5125;53.130;8.244;2022-07-10T06:34:33;1.80;;;1.00;;
10166;SDS011;5125;53.130;8.244;2022-07-10T06:37:02;2.90;;;1.10;;
10166;SDS011;5125;53.130;8.244;2022-07-10T06:39:31;4.13;;;1.10;;
10166;SDS011;5125;53.130;8.244;2022-07-10T06:42:05;2.40;;;0.93;;
10166;SDS011;5125;53.130;8.244;2022-07-10T06:44:34;3.13;;;0.87;;
10166;SDS011;5125;53.130;8.244;2022-07-10T06:47:03;4.13;;;1.43;;
10166;SDS011;5125;53.130;8.244;2022-07-10T06:49:47;2.73;;;1.10;;
10166;SDS011;5125;53.130;8.244;2022-07-10T06:52:18;2.03;;;1.00;;
10166;SDS011;5125;53.130;8.244;2022-07-10T06:54:47;3.10;;;1.10;;
10166;SDS011;5125;53.130;8.244;2022-07-10T06:57:17;2.13;;;0.93;;
10166;SDS011;5125;53.130;8.244;2022-07-10T06:59:46;2.37;;;1.00;;
10166;SDS011;5125;53.130;8.244;2022-07-10T07:02:16;4.07;;;1.30;;
10166;SDS011;5125;53.130;8.244;2022-07-10T07:04:47;2.90;;;1.50;;
10166;SDS011;5125;53.130;8.244;2022-07-10T07:07:16;2.77;;;1.23;;
10166;SDS011;5125;53.130;8.244;2022-07-10T07:09:44;2.93;;;1.23;;
10166;SDS011;5125;53.130;8.244;2022-07-10T07:12:15;5.57;;;1.20;;
10166;SDS011;5125;53.130;8.244;2022-07-10T07:14:44;5.07;;;1.40;;
10166;SDS011;5125;53.130;8.244;2022-07-10T07:17:13;3.10;;;1.30;;
10166;SDS011;5125;53.130;8.244;2022-07-10T07:19:49;2.90;;;1.20;;
10166;SDS011;5125;53.130;8.244;2022-07-10T07:22:33;4.77;;;1.50;;
10166;SDS011;5125;53.130;8.244;2022-07-10T07:25:14;3.73;;;1.13;;
10166;SDS011;5125;53.130;8.244;2022-07-10T07:27:43;4.07;;;1.40;;
10166;SDS011;5125;53.130;8.244;2022-07-10T07:30:14;4.53;;;1.40;;
10166;SDS011;5125;53.130;8.244;2022-07-10T07:32:46;4.07;;;1.43;;
10166;SDS011;5125;53.130;8.244;2022-07-10T07:35:20;4.80;;;1.50;;
10166;SDS011;5125;53.130;8.244;2022-07-10T07:37:49;3.90;;;1.60;;
10166;SDS011;5125;53.130;8.244;2022-07-10T07:40:19;2.63;;;1.17;;
10166;SDS011;5125;53.130;8.244;2022-07-10T07:42:48;3.60;;;1.27;;
10166;SDS011;5125;53.130;8.244;2022-07-10T07:45:18;2.90;;;1.13;;
10166;SDS011;5125;53.130;8.244;2022-07-10T07:47:47;3.00;;;1.20;;
10166;SDS011;5125;53.130;8.244;2022-07-10T07:50:20;5.30;;;1.50;;
10166;SDS011;5125;53.130;8.244;2022-07-10T07:52:51;4.20;;;1.53;;
10166;SDS011;5125;53.130;8.244;2022-07-10T07:55:21;4.27;;;1.40;;
10166;SDS011;5125;53.130;8.244;2022-07-10T07:57:50;3.40;;;1.27;;
10166;SDS011;5125;53.130;8.244;2022-07-10T08:00:19;3.27;;;1.13;;
10166;SDS011;5125;53.130;8.244;2022-07-10T08:02:50;4.27;;;1.40;;
10166;SDS011;5125;53.130;8.244;2022-07-10T08:05:22;4.23;;;1.40;;
10166;SDS011;5125;53.130;8.244;2022-07-10T08:07:51;4.10;;;1.30;;
10166;SDS011;5125;53.130;8.244;2022-07-10T08:10:22;2.85;;;1.45;;
10166;SDS011;5125;53.130;8.244;2022-07-10T08:12:52;2.58;;;1.20;;
10166;SDS011;5125;53.130;8.244;2022-07-10T08:15:21;2.70;;;1.17;;
10166;SDS011;5125;53.130;8.244;2022-07-10T08:17:50;2.33;;;1.17;;
10166;SDS011;5125;53.130;8.244;2022-07-10T08:20:23;2.28;;;1.27;;
10166;SDS011;5125;53.130;8.244;2022-07-10T08:22:52;3.55;;;1.40;;
10166;SDS011;5125;53.130;8.244;2022-07-10T08:25:21;3.00;;;1.30;;
10166;SDS011;5125;53.130;8.244;2022-07-10T08:27:50;2.30;;;1.40;;
10166;SDS011;5125;53.130;8.244;2022-07-10T08:30:19;2.83;;;1.35;;
10166;SDS011;5125;53.130;8.244;2022-07-10T08:32:48;3.00;;;1.30;;
10166;SDS011;5125;53.130;8.244;2022-07-10T08:35:20;4.38;;;1.52;;
10166;SDS011;5125;53.130;8.244;2022-07-10T08:37:52;3.40;;;1.35;;
10166;SDS011;5125;53.130;8.244;2022-07-10T08:40:21;4.13;;;1.38;;
10166;SDS011;5125;53.130;8.244;2022-07-10T08:42:51;4.40;;;1.58;;
10166;SDS011;5125;53.130;8.244;2022-07-10T08:45:20;4.13;;;1.38;;
10166;SDS011;5125;53.130;8.244;2022-07-10T08:47:50;3.08;;;1.30;;
10166;SDS011;5125;53.130;8.244;2022-07-10T08:50:22;1.80;;;1.30;;
10166;SDS011;5125;53.130;8.244;2022-07-10T08:53:00;2.47;;;1.30;;
10166;SDS011;5125;53.130;8.244;2022-07-10T08:55:32;1.80;;;1.00;;
10166;SDS011;5125;53.130;8.244;2022-07-10T08:58:02;3.40;;;1.17;;
10166;SDS011;5125;53.130;8.244;2022-07-10T09:00:33;2.30;;;1.20;;
10166;SDS011;5125;53.130;8.244;2022-07-10T09:03:02;5.43;;;1.37;;
10166;SDS011;5125;53.130;8.244;2022-07-10T09:05:34;3.43;;;1.20;;
10166;SDS011;5125;53.130;8.244;2022-07-10T09:08:03;4.17;;;1.33;;
10166;SDS011;5125;53.130;8.244;2022-07-10T09:10:32;3.63;;;1.40;;
10166;SDS011;5125;53.130;8.244;2022-07-10T09:13:01;2.77;;;1.30;;
10166;SDS011;5125;53.130;8.244;2022-07-10T09:15:30;2.80;;;1.13;;
10166;SDS011;5125;53.130;8.244;2022-07-10T09:18:02;4.60;;;1.30;;
10166;SDS011;5125;53.130;8.244;2022-07-10T09:20:36;2.80;;;1.10;;
10166;SDS011;5125;53.130;8.244;2022-07-10T09:23:11;4.07;;;1.30;;
10166;SDS011;5125;53.130;8.244;2022-07-10T09:25:44;2.03;;;1.30;;
10166;SDS011;5125;53.130;8.244;2022-07-10T09:28:13;4.27;;;1.33;;
10166;SDS011;5125;53.130;8.244;2022-07-10T09:30:44;2.10;;;0.90;;
10166;SDS011;5125;53.130;8.244;2022-07-10T09:33:17;3.27;;;1.20;;
10166;SDS011;5125;53.130;8.244;2022-07-10T09:36:08;2.63;;;0.90;;
10166;SDS011;5125;53.130;8.244;2022-07-10T09:38:50;3.87;;;1.37;;
10166;SDS011;5125;53.130;8.244;2022-07-10T09:41:26;3.23;;;1.20;;
10166;SDS011;5125;53.130;8.244;2022-07-10T09:43:56;3.17;;;1.30;;
10166;SDS011;5125;53.130;8.244;2022-07-10T09:46:26;5.07;;;1.27;;
10166;SDS011;5125;53.130;8.244;2022-07-10T09:49:04;2.57;;;0.90;;
10166;SDS011;5125;53.130;8.244;2022-07-10T09:51:37;3.27;;;1.50;;
10166;SDS011;5125;53.130;8.244;2022-07-10T09:54:07;2.90;;;1.20;;
10166;SDS011;5125;53.130;8.244;2022-07-10T09:56:40;2.47;;;1.37;;
10166;SDS011;5125;53.130;8.244;2022-07-10T09:59:12;2.90;;;1.20;;
10166;SDS011;5125;53.130;8.244;2022-07-10T10:01:44;3.03;;;1.30;;
10166;SDS011;5125;53.130;8.244;2022-07-10T10:04:14;4.33;;;1.37;;
10166;SDS011;5125;53.130;8.244;2022-07-10T10:06:50;2.67;;;1.40;;
10166;SDS011;5125;53.130;8.244;2022-07-10T10:09:21;17.17;;;1.80;;
10166;SDS011;5125;53.130;8.244;2022-07-10T10:11:54;3.33;;;1.30;;
10166;SDS011;5125;53.130;8.244;2022-07-10T10:14:28;4.80;;;1.37;;
10166;SDS011;5125;53.130;8.244;2022-07-10T10:16:57;2.97;;;1.50;;
10166;SDS011;5125;53.130;8.244;2022-07-10T10:19:28;4.30;;;1.30;;
10166;SDS011;5125;53.130;8.244;2022-07-10T10:22:14;5.10;;;1.50;;
10166;SDS011;5125;53.130;8.244;2022-07-10T10:24:46;7.70;;;1.53;;
10166;SDS011;5125;53.130;8.244;2022-07-10T10:27:14;4.73;;;1.20;;
10166;SDS011;5125;53.130;8.244;2022-07-10T10:29:43;3.57;;;1.70;;
10166;SDS011;5125;53.130;8.244;2022-07-10T10:32:13;4.13;;;1.50;;
10166;SDS011;5125;53.130;8.244;2022-07-10T10:34:42;4.13;;;1.50;;
10166;SDS011;5125;53.130;8.244;2022-07-10T10:37:37;3.30;;;1.40;;
10166;SDS011;5125;53.130;8.244;2022-07-10T10:40:10;2.80;;;1.03;;
10166;SDS011;5125;53.130;8.244;2022-07-10T10:42:40;4.83;;;1.50;;
10166;SDS011;5125;53.130;8.244;2022-07-10T10:45:25;4.13;;;1.20;;
10166;SDS011;5125;53.130;8.244;2022-07-10T10:48:01;3.10;;;0.90;;
10166;SDS011;5125;53.130;8.244;2022-07-10T10:50:37;3.13;;;1.00;;
10166;SDS011;5125;53.130;8.244;2022-07-10T10:53:28;2.30;;;1.00;;
10166;SDS011;5125;53.130;8.244;2022-07-10T10:59:01;2.67;;;1.00;;
10166;SDS011;5125;53.130;8.244;2022-07-10T11:01:30;2.57;;;1.20;;
10166;SDS011;5125;53.130;8.244;2022-07-10T11:06:49;3.43;;;1.20;;
10166;SDS011;5125;53.130;8.244;2022-07-10T11:09:25;1.77;;;0.97;;
10166;SDS011;5125;53.130;8.244;2022-07-10T11:12:01;3.50;;;1.00;;
10166;SDS011;5125;53.130;8.244;2022-07-10T11:14:32;3.13;;;1.07;;
10166;SDS011;5125;53.130;8.244;2022-07-10T11:17:03;2.63;;;1.10;;
10166;SDS011;5125;53.130;8.244;2022-07-10T11:19:34;2.67;;;1.30;;
10166;SDS011;5125;53.130;8.244;2022-07-10T11:22:17;3.80;;;1.10;;
10166;SDS011;5125;53.130;8.244;2022-07-10T11:25:28;5.33;;;1.20;;
10166;SDS011;5125;53.130;8.244;2022-07-10T11:28:06;3.87;;;2.10;;
10166;SDS011;5125;53.130;8.244;2022-07-10T11:30:44;5.20;;;2.23;;
10166;SDS011;5125;53.130;8.244;2022-07-10T11:33:16;21.43;;;18.73;;
10166;SDS011;5125;53.130;8.244;2022-07-10T11:35:46;41.97;;;35.73;;
10166;SDS011;5125;53.130;8.244;2022-07-10T11:38:18;18.93;;;17.03;;
10166;SDS011;5125;53.130;8.244;2022-07-10T11:40:50;11.07;;;8.97;;
10166;SDS011;5125;53.130;8.244;2022-07-10T11:43:21;7.23;;;4.60;;
10166;SDS011;5125;53.130;8.244;2022-07-10T11:45:50;3.90;;;2.70;;
10166;SDS011;5125;53.130;8.244;2022-07-10T11:48:24;4.23;;;2.03;;
10166;SDS011;5125;53.130;8.244;2022-07-10T11:50:53;2.53;;;1.17;;
10166;SDS011;5125;53.130;8.244;2022-07-10T11:53:23;2.23;;;1.17;;
10166;SDS011;5125;53.130;8.244;2022-07-10T11:55:55;2.43;;;1.00;;
10166;SDS011;5125;53.130;8.244;2022-07-10T11:58:26;2.40;;;1.23;;
10166;SDS011;5125;53.130;8.244;2022-07-10T12:00:58;1.90;;;1.00;;
10166;SDS011;5125;53.130;8.244;2022-07-10T12:03:30;3.63;;;1.20;;
10166;SDS011;5125;53.130;8.244;2022-07-10T12:06:03;3.83;;;1.00;;
10166;SDS011;5125;53.130;8.244;2022-07-10T12:08:45;0.87;;;0.70;;
10166;SDS011;5125;53.130;8.244;2022-07-10T12:11:17;2.50;;;0.77;;
10166;SDS011;5125;53.130;8.244;2022-07-10T12:13:47;1.53;;;0.90;;
10166;SDS011;5125;53.130;8.244;2022-07-10T12:16:19;1.27;;;0.80;;
10166;SDS011;5125;53.130;8.244;2022-07-10T12:18:48;1.73;;;0.80;;
10166;SDS011;5125;53.130;8.244;2022-07-10T12:21:18;3.20;;;0.73;;
10166;SDS011;5125;53.130;8.244;2022-07-10T12:23:51;2.10;;;1.10;;
10166;SDS011;5125;53.130;8.244;2022-07-10T12:26:22;2.77;;;1.10;;
10166;SDS011;5125;53.130;8.244;2022-07-10T12:29:02;1.33;;;0.80;;
10166;SDS011;5125;53.130;8.244;2022-07-10T12:31:33;2.83;;;1.20;;
10166;SDS011;5125;53.130;8.244;2022-07-10T12:34:04;2.60;;;0.80;;
10166;SDS011;5125;53.130;8.244;2022-07-10T12:36:44;1.60;;;0.80;;
10166;SDS011;5125;53.130;8.244;2022-07-10T12:39:15;1.33;;;0.70;;
10166;SDS011;5125;53.130;8.244;2022-07-10T12:42:02;1.77;;;0.70;;
10166;SDS011;5125;53.130;8.244;2022-07-10T12:44:45;1.03;;;0.70;;
10166;SDS011;5125;53.130;8.244;2022-07-10T12:47:16;1.00;;;0.43;;
10166;SDS011;5125;53.130;8.244;2022-07-10T12:49:53;2.00;;;0.50;;
10166;SDS011;5125;53.130;8.244;2022-07-10T12:52:24;2.23;;;0.67;;
10166;SDS011;5125;53.130;8.244;2022-07-10T12:55:07;1.37;;;0.60;;
10166;SDS011;5125;53.130;8.244;2022-07-10T12:57:50;0.60;;;0.57;;
10166;SDS011;5125;53.130;8.244;2022-07-10T13:00:21;1.13;;;0.43;;
10166;SDS011;5125;53.130;8.244;2022-07-10T13:02:58;1.00;;;0.40;;
10166;SDS011;5125;53.130;8.244;2022-07-10T13:05:30;1.43;;;0.60;;
10166;SDS011;5125;53.130;8.244;2022-07-10T13:08:05;1.77;;;0.60;;
10166;SDS011;5125;53.130;8.244;2022-07-10T13:10:40;1.37;;;0.50;;
10166;SDS011;5125;53.130;8.244;2022-07-10T13:13:13;1.83;;;0.73;;
10166;SDS011;5125;53.130;8.244;2022-07-10T13:15:44;1.27;;;0.63;;
10166;SDS011;5125;53.130;8.244;2022-07-10T13:18:17;1.33;;;0.47;;
10166;SDS011;5125;53.130;8.244;2022-07-10T13:20:47;0.93;;;0.50;;
10166;SDS011;5125;53.130;8.244;2022-07-10T13:23:18;2.17;;;0.60;;
10166;SDS011;5125;53.130;8.244;2022-07-10T13:25:48;1.80;;;1.03;;
10166;SDS011;5125;53.130;8.244;2022-07-10T13:28:21;1.70;;;0.80;;
10166;SDS011;5125;53.130;8.244;2022-07-10T13:30:54;1.00;;;0.60;;
10166;SDS011;5125;53.130;8.244;2022-07-10T13:33:28;2.83;;;0.90;;
10166;SDS011;5125;53.130;8.244;2022-07-10T13:36:00;2.33;;;0.70;;
10166;SDS011;5125;53.130;8.244;2022-07-10T13:38:34;1.37;;;0.53;;
10166;SDS011;5125;53.130;8.244;2022-07-10T13:41:09;1.60;;;0.50;;
10166;SDS011;5125;53.130;8.244;2022-07-10T13:43:53;0.70;;;0.40;;
10166;SDS011;5125;53.130;8.244;2022-07-10T13:46:28;0.93;;;0.60;;
10166;SDS011;5125;53.130;8.244;2022-07-10T13:49:02;1.27;;;0.67;;
10166;SDS011;5125;53.130;8.244;2022-07-10T13:51:47;0.80;;;0.50;;
10166;SDS011;5125;53.130;8.244;2022-07-10T13:54:23;1.67;;;0.60;;
10166;SDS011;5125;53.130;8.244;2022-07-10T13:56:59;1.53;;;0.90;;
10166;SDS011;5125;53.130;8.244;2022-07-10T13:59:32;1.33;;;0.67;;
10166;SDS011;5125;53.130;8.244;2022-07-10T14:02:07;2.87;;;0.80;;
10166;SDS011;5125;53.130;8.244;2022-07-10T14:04:41;1.47;;;0.80;;
10166;SDS011;5125;53.130;8.244;2022-07-10T14:07:11;0.93;;;0.60;;
10166;SDS011;5125;53.130;8.244;2022-07-10T14:09:40;1.43;;;0.63;;
10166;SDS011;5125;53.130;8.244;2022-07-10T14:12:09;2.47;;;0.83;;
10166;SDS011;5125;53.130;8.244;2022-07-10T14:14:43;1.00;;;0.60;;
10166;SDS011;5125;53.130;8.244;2022-07-10T14:17:14;0.90;;;0.50;;
10166;SDS011;5125;53.130;8.244;2022-07-10T14:19:49;2.27;;;0.70;;
10166;SDS011;5125;53.130;8.244;2022-07-10T14:22:22;1.50;;;0.67;;
10166;SDS011;5125;53.130;8.244;2022-07-10T14:24:58;1.10;;;0.60;;
10166;SDS011;5125;53.130;8.244;2022-07-10T14:27:28;0.97;;;0.57;;
10166;SDS011;5125;53.130;8.244;2022-07-10T14:30:02;1.10;;;0.57;;
10166;SDS011;5125;53.130;8.244;2022-07-10T14:32:46;1.07;;;0.43;;
10166;SDS011;5125;53.130;8.244;2022-07-10T14:35:18;1.07;;;0.53;;
10166;SDS011;5125;53.130;8.244;2022-07-10T14:37:51;2.27;;;0.97;;
10166;SDS011;5125;53.130;8.244;2022-07-10T14:40:21;2.90;;;0.80;;
10166;SDS011;5125;53.130;8.244;2022-07-10T14:42:51;0.93;;;0.50;;
10166;SDS011;5125;53.130;8.244;2022-07-10T14:45:24;0.53;;;0.47;;
10166;SDS011;5125;53.130;8.244;2022-07-10T14:47:57;0.73;;;0.63;;
10166;SDS011;5125;53.130;8.244;2022-07-10T14:50:30;1.17;;;0.77;;
10166;SDS011;5125;53.130;8.244;2022-07-10T14:53:02;1.17;;;0.60;;
10166;SDS011;5125;53.130;8.244;2022-07-10T14:55:33;1.37;;;0.50;;
10166;SDS011;5125;53.130;8.244;2022-07-10T14:58:04;1.30;;;0.70;;
10166;SDS011;5125;53.130;8.244;2022-07-10T15:00:37;1.53;;;0.60;;
10166;SDS011;5125;53.130;8.244;2022-07-10T15:03:10;0.87;;;0.60;;
10166;SDS011;5125;53.130;8.244;2022-07-10T15:05:41;2.73;;;0.57;;
10166;SDS011;5125;53.130;8.244;2022-07-10T15:08:13;1.97;;;0.67;;
10166;SDS011;5125;53.130;8.244;2022-07-10T15:10:43;0.97;;;0.70;;
10166;SDS011;5125;53.130;8.244;2022-07-10T15:13:14;0.83;;;0.60;;
10166;SDS011;5125;53.130;8.244;2022-07-10T15:15:47;0.50;;;0.40;;
10166;SDS011;5125;53.130;8.244;2022-07-10T15:18:17;0.70;;;0.50;;
10166;SDS011;5125;53.130;8.244;2022-07-10T15:20:54;0.93;;;0.47;;
10166;SDS011;5125;53.130;8.244;2022-07-10T15:23:24;0.50;;;0.40;;
10166;SDS011;5125;53.130;8.244;2022-07-10T15:25:55;1.27;;;0.50;;
10166;SDS011;5125;53.130;8.244;2022-07-10T15:28:32;0.40;;;0.40;;
10166;SDS011;5125;53.130;8.244;2022-07-10T15:31:10;0.67;;;0.20;;
10166;SDS011;5125;53.130;8.244;2022-07-10T15:33:45;1.40;;;0.63;;